Logo Frankfurt-Egelsbach Airport
Hessische Flugplatz GmbH Egelsbach
Telefon : +49 (0)6103-9418-0
E-Mail : fly@egelsbach-airport.com
   

 

 

 

 

 

 

Aktuelle Daten

Öffnungszeiten: 0800 LT - ECET (max 2100 LT)

PPR: 0700 LT - 0800 LT, ECET - 2100 LT Tel +49 6103 9418-0

Behördlich vorgeschriebenes Briefing für NVFR-Anflüge mit HPA
für die Saison 2015/2016

» Behördlich vorgeschriebenes Briefing für NVFR-Anflüge mit HPA für die Saison 2015/2016

 

Webcam

Webcam

Wetterdaten

Beobachtung von : 07-FEB-2016 - 12:40 UTC
Sicht : ausgefallen
Wolkenuntergrenze : nicht feststellbar
Wind : 230 / 6 kt
Wind extrem (10 min) : 200-260 / 4-8 kt
Temperatur : 8.5° Celsius
Taupunkt : 6.2° Celsius
QNH : 1004.3 hPa
Dichtehöhe : -50 ft

Daten werden automatisch generiert. Verfügbarkeit und Richtigkeit ohne Gewähr.
Mit freundlicher Unterstützung des Deutschen Wetterdienstes

Metar


140
SADL31 EDFE 071220
METAR EDFE 071220Z 22007KT 9999 -RA FEW016 BKN043 09/06 Q1004=

Notam

F4641/15 - 2 WIND POWER STATIONS ERECTED NW OF VILLAGE OF ROSSDORF. 495255N 0084511E. ELEV 1310 FT / 591 FT AGL. DAY AND NIGHT MARKED. 01 OCT 00:00 2015 UNTIL PERM.